createdAt,value
2018-08-13T00:02:12.892Z,17.50
2018-08-13T00:04:41.373Z,17.50
2018-08-13T00:07:10.800Z,17.40
2018-08-13T00:09:41.342Z,17.40
2018-08-13T00:12:10.596Z,17.30
2018-08-13T00:14:39.299Z,17.30
2018-08-13T00:17:08.071Z,17.20
2018-08-13T00:19:36.766Z,17.20
2018-08-13T00:22:05.627Z,17.10
2018-08-13T00:24:34.217Z,17.10
2018-08-13T00:27:02.709Z,17.10
2018-08-13T00:29:31.204Z,17.10
2018-08-13T00:31:59.687Z,17.10
2018-08-13T00:34:28.140Z,17.00
2018-08-13T00:36:56.658Z,17.00
2018-08-13T00:39:25.166Z,16.90
2018-08-13T00:41:53.662Z,16.90
2018-08-13T00:44:22.117Z,16.80
2018-08-13T00:46:50.644Z,16.70
2018-08-13T00:49:19.080Z,16.70
2018-08-13T00:51:47.617Z,16.60
2018-08-13T00:54:16.104Z,16.50
2018-08-13T00:56:44.620Z,16.40
2018-08-13T00:59:13.123Z,16.30
2018-08-13T01:01:41.653Z,16.30
2018-08-13T01:04:10.134Z,16.20
2018-08-13T01:06:38.808Z,16.30
2018-08-13T01:09:08.593Z,16.30
2018-08-13T01:11:37.049Z,16.30
2018-08-13T01:14:05.831Z,16.30
2018-08-13T01:16:34.338Z,16.40
2018-08-13T01:19:02.828Z,16.40
2018-08-13T01:21:31.328Z,16.40
2018-08-13T01:23:59.773Z,16.50
2018-08-13T01:26:28.273Z,16.50
2018-08-13T01:28:56.774Z,16.50
2018-08-13T01:31:25.302Z,16.60
2018-08-13T01:33:53.841Z,16.60
2018-08-13T01:36:22.386Z,16.60
2018-08-13T01:38:50.917Z,16.50
2018-08-13T01:41:19.435Z,16.40
2018-08-13T01:43:47.938Z,16.40
2018-08-13T01:46:16.550Z,16.30
2018-08-13T01:48:45.022Z,16.20
2018-08-13T01:51:13.462Z,16.10
2018-08-13T01:53:41.978Z,16.10
2018-08-13T01:56:10.489Z,16.00
2018-08-13T01:58:39.008Z,16.00
2018-08-13T02:01:07.582Z,16.10
2018-08-13T02:03:36.050Z,16.10
2018-08-13T02:06:04.598Z,16.10
2018-08-13T02:08:33.162Z,16.10
2018-08-13T02:11:01.757Z,16.10
2018-08-13T02:13:30.225Z,16.10
2018-08-13T02:15:58.705Z,16.00
2018-08-13T02:18:27.207Z,16.10
2018-08-13T02:20:55.764Z,16.10
2018-08-13T02:23:24.271Z,16.10
2018-08-13T02:25:52.798Z,16.10
2018-08-13T02:28:21.285Z,16.10
2018-08-13T02:30:49.755Z,16.10
2018-08-13T02:33:18.309Z,16.10
2018-08-13T02:35:46.775Z,16.00
2018-08-13T02:38:15.654Z,16.00
2018-08-13T02:40:44.168Z,16.00
2018-08-13T02:43:12.652Z,16.00
2018-08-13T02:45:41.123Z,16.00
2018-08-13T02:48:09.608Z,16.00
2018-08-13T02:50:38.094Z,16.00
2018-08-13T02:53:06.763Z,16.00
2018-08-13T02:55:35.241Z,15.90
2018-08-13T02:58:03.868Z,15.80
2018-08-13T03:00:32.356Z,15.80
2018-08-13T03:03:00.902Z,15.80
2018-08-13T03:05:29.424Z,15.70
2018-08-13T03:07:57.986Z,15.60
2018-08-13T03:10:26.594Z,15.60
2018-08-13T03:12:55.094Z,15.60
2018-08-13T03:15:23.595Z,15.50
2018-08-13T03:17:52.145Z,15.50
2018-08-13T03:20:20.653Z,15.40
2018-08-13T03:22:49.182Z,15.40
2018-08-13T03:25:17.660Z,15.40
2018-08-13T03:27:46.116Z,15.40
2018-08-13T03:30:14.609Z,15.40
2018-08-13T03:32:43.106Z,15.40
2018-08-13T03:35:11.563Z,15.40
2018-08-13T03:37:40.310Z,15.40
2018-08-13T03:40:10.918Z,15.30
2018-08-13T03:42:39.563Z,15.30
2018-08-13T03:45:09.694Z,15.30
2018-08-13T03:47:38.376Z,15.30
2018-08-13T03:50:07.945Z,15.30
2018-08-13T03:52:36.425Z,15.30
2018-08-13T03:55:06.137Z,15.30
2018-08-13T03:57:34.584Z,15.40
2018-08-13T04:00:03.184Z,15.40
2018-08-13T04:02:31.679Z,15.40
2018-08-13T04:05:00.196Z,15.30
2018-08-13T04:07:28.878Z,15.30
2018-08-13T04:09:57.393Z,15.30
2018-08-13T04:12:25.852Z,15.30
2018-08-13T04:14:54.345Z,15.30
2018-08-13T04:17:22.835Z,15.30
2018-08-13T04:19:51.318Z,15.30
2018-08-13T04:22:19.807Z,15.30
2018-08-13T04:24:48.291Z,15.30
2018-08-13T04:27:16.749Z,15.20
2018-08-13T04:29:45.233Z,15.20
2018-08-13T04:32:13.729Z,15.20
2018-08-13T04:34:42.225Z,15.20
2018-08-13T04:37:10.690Z,15.30
2018-08-13T04:39:39.164Z,15.30
2018-08-13T04:42:07.618Z,15.30
2018-08-13T04:44:36.112Z,15.30
2018-08-13T04:47:04.569Z,15.40
2018-08-13T04:49:33.029Z,15.40
2018-08-13T04:52:01.554Z,15.50
2018-08-13T04:54:30.026Z,15.60
2018-08-13T04:56:58.494Z,15.70
2018-08-13T04:59:27.016Z,15.70
2018-08-13T05:01:55.444Z,15.80
2018-08-13T05:04:23.945Z,15.80
2018-08-13T05:06:52.428Z,15.90
2018-08-13T05:09:20.974Z,15.90
2018-08-13T05:11:49.434Z,16.00
2018-08-13T05:14:18.210Z,16.00
2018-08-13T05:16:46.692Z,16.10
2018-08-13T05:19:15.250Z,16.20
2018-08-13T05:21:43.708Z,16.30
2018-08-13T05:24:12.210Z,16.40
2018-08-13T05:26:40.755Z,16.40
2018-08-13T05:29:09.265Z,16.50
2018-08-13T05:31:37.716Z,16.60
2018-08-13T05:34:06.225Z,16.70
2018-08-13T05:36:34.725Z,16.70
2018-08-13T05:39:03.466Z,16.80
2018-08-13T05:41:31.942Z,16.90
2018-08-13T05:44:00.389Z,17.00
2018-08-13T05:46:28.861Z,17.10
2018-08-13T05:48:57.334Z,17.20
2018-08-13T05:51:25.829Z,17.40
2018-08-13T05:53:54.279Z,17.50
2018-08-13T05:56:22.795Z,17.60
2018-08-13T05:58:51.249Z,17.80
2018-08-13T06:01:19.758Z,18.00
2018-08-13T06:03:48.186Z,18.20
2018-08-13T06:06:16.913Z,18.40
2018-08-13T06:08:45.476Z,18.50
2018-08-13T06:11:13.998Z,18.70
2018-08-13T06:13:42.422Z,18.80
2018-08-13T06:16:10.955Z,19.00
2018-08-13T06:18:42.325Z,19.10
2018-08-13T06:21:10.789Z,19.30
2018-08-13T06:23:39.283Z,19.40
2018-08-13T06:26:07.814Z,19.60
2018-08-13T06:28:36.291Z,19.80
2018-08-13T06:31:04.876Z,19.90
2018-08-13T06:33:33.331Z,20.10
2018-08-13T06:36:01.787Z,20.30
2018-08-13T06:38:30.233Z,20.50
2018-08-13T06:40:58.724Z,20.60
2018-08-13T06:43:27.288Z,20.80
2018-08-13T06:45:55.830Z,21.10
2018-08-13T06:48:24.319Z,21.20
2018-08-13T06:50:52.805Z,21.40
2018-08-13T06:53:21.260Z,21.50
2018-08-13T06:55:49.780Z,21.70
2018-08-13T06:58:18.213Z,21.90
2018-08-13T07:00:46.817Z,22.00
2018-08-13T07:03:15.240Z,22.10
2018-08-13T07:05:43.743Z,22.30
2018-08-13T07:08:12.235Z,22.50
2018-08-13T07:10:40.745Z,22.70
2018-08-13T07:13:09.280Z,22.80
2018-08-13T07:15:37.829Z,23.00
2018-08-13T07:18:06.380Z,23.10
2018-08-13T07:20:34.949Z,23.30
2018-08-13T07:23:03.501Z,23.40
2018-08-13T07:25:31.981Z,23.50
2018-08-13T07:28:00.501Z,23.70
2018-08-13T07:30:29.083Z,23.80
2018-08-13T07:32:57.561Z,23.90
2018-08-13T07:35:26.037Z,24.00
2018-08-13T07:37:54.556Z,24.10
2018-08-13T07:40:23.015Z,24.20
2018-08-13T07:42:51.466Z,24.40
2018-08-13T07:45:19.921Z,24.50
2018-08-13T07:47:48.401Z,24.60
2018-08-13T07:50:16.973Z,24.70
2018-08-13T07:52:45.483Z,24.90
2018-08-13T07:55:14.183Z,25.00
2018-08-13T07:57:42.728Z,25.20
2018-08-13T08:00:16.722Z,25.40
2018-08-13T08:02:45.247Z,25.60
2018-08-13T08:05:13.922Z,25.80
2018-08-13T08:07:42.569Z,25.90
2018-08-13T08:10:13.175Z,26.10
2018-08-13T08:12:42.058Z,26.20
2018-08-13T08:15:12.792Z,26.30
2018-08-13T08:17:41.440Z,26.40
2018-08-13T08:20:09.990Z,26.60
2018-08-13T08:22:38.985Z,26.70
2018-08-13T08:25:10.366Z,26.90
2018-08-13T08:27:38.844Z,27.10
2018-08-13T08:30:09.685Z,27.20
2018-08-13T08:32:38.699Z,27.30
2018-08-13T08:35:09.543Z,27.50
2018-08-13T08:37:39.050Z,27.80
2018-08-13T08:40:11.149Z,28.00
2018-08-13T08:42:39.697Z,28.30
2018-08-13T08:45:14.553Z,28.50
2018-08-13T08:47:43.515Z,28.70
2018-08-13T08:50:12.305Z,28.90
2018-08-13T08:52:40.815Z,29.00
2018-08-13T08:55:09.365Z,28.90
2018-08-13T08:57:38.491Z,28.90
2018-08-13T09:00:09.964Z,28.70
2018-08-13T09:02:38.401Z,28.50
2018-08-13T09:05:07.931Z,28.30
2018-08-13T09:07:36.645Z,28.20
2018-08-13T09:10:05.855Z,28.10
2018-08-13T09:12:34.372Z,28.10
2018-08-13T09:15:02.854Z,28.30
2018-08-13T09:17:43.484Z,28.30
2018-08-13T09:20:23.133Z,28.10
2018-08-13T09:23:02.839Z,27.80
2018-08-13T09:25:42.706Z,27.90
2018-08-13T09:28:22.248Z,28.10
2018-08-13T09:31:02.015Z,28.30
2018-08-13T09:33:41.972Z,28.60
2018-08-13T09:36:10.589Z,29.00
2018-08-13T09:38:39.089Z,29.10
2018-08-13T09:41:07.594Z,29.10
2018-08-13T09:43:36.100Z,29.00
2018-08-13T09:46:04.625Z,29.10
2018-08-13T09:48:33.256Z,29.20
2018-08-13T09:51:01.724Z,29.30
2018-08-13T09:53:30.257Z,29.30
2018-08-13T09:55:58.747Z,29.40
2018-08-13T09:58:27.285Z,29.30
2018-08-13T10:01:01.118Z,29.50
2018-08-13T10:03:30.060Z,29.60
2018-08-13T10:06:00.161Z,29.50
2018-08-13T10:08:29.216Z,29.50
2018-08-13T10:10:57.812Z,29.50
2018-08-13T10:13:26.235Z,29.80
2018-08-13T10:15:54.753Z,29.90
2018-08-13T10:18:23.243Z,30.00
2018-08-13T10:20:51.727Z,30.00
2018-08-13T10:23:20.267Z,30.00
2018-08-13T10:25:48.725Z,30.10
2018-08-13T10:28:17.226Z,30.20
2018-08-13T10:30:45.731Z,30.00
2018-08-13T10:33:14.262Z,29.80
2018-08-13T10:35:44.814Z,29.70
2018-08-13T10:38:13.379Z,29.50
2018-08-13T10:40:41.874Z,29.60
2018-08-13T10:43:10.403Z,29.40
2018-08-13T10:45:38.882Z,29.20
2018-08-13T10:48:07.522Z,29.30
2018-08-13T10:50:35.990Z,29.60
2018-08-13T10:53:04.562Z,29.50
2018-08-13T10:55:33.103Z,29.70
2018-08-13T10:58:01.693Z,29.80
2018-08-13T11:00:30.173Z,29.80
2018-08-13T11:02:58.823Z,30.00
2018-08-13T11:05:27.231Z,30.10
2018-08-13T11:07:55.831Z,30.20
2018-08-13T11:10:24.413Z,30.00
2018-08-13T11:12:52.887Z,29.70
2018-08-13T11:15:21.421Z,29.70
2018-08-13T11:17:49.930Z,29.60
2018-08-13T11:20:18.403Z,29.50
2018-08-13T11:22:47.229Z,29.20
2018-08-13T11:25:16.305Z,28.90
2018-08-13T11:27:44.803Z,28.60
2018-08-13T11:30:14.855Z,28.30
2018-08-13T11:32:43.531Z,28.00
2018-08-13T11:35:12.433Z,28.00
2018-08-13T11:37:40.923Z,27.80
2018-08-13T11:40:14.768Z,27.70
2018-08-13T11:42:43.417Z,27.50
2018-08-13T11:45:11.874Z,27.30
2018-08-13T11:47:40.795Z,27.20
2018-08-13T11:50:17.075Z,26.90
2018-08-13T11:52:48.125Z,26.40
2018-08-13T11:55:17.185Z,26.20
2018-08-13T11:57:46.284Z,25.90
2018-08-13T12:00:14.938Z,25.70
2018-08-13T12:02:43.506Z,25.60
2018-08-13T12:05:13.436Z,25.50
2018-08-13T12:07:42.332Z,25.30
2018-08-13T12:10:11.683Z,25.30
2018-08-13T12:12:41.145Z,25.20
2018-08-13T12:15:10.699Z,25.10
2018-08-13T12:17:39.552Z,25.00
2018-08-13T12:20:12.056Z,25.00
2018-08-13T12:22:40.650Z,25.20
2018-08-13T12:25:09.721Z,25.40
2018-08-13T12:27:38.185Z,25.50
2018-08-13T12:30:09.010Z,25.60
2018-08-13T12:32:37.459Z,25.60
2018-08-13T12:35:06.180Z,25.80
2018-08-13T12:37:34.664Z,25.90
2018-08-13T12:40:03.220Z,25.90
2018-08-13T12:42:31.683Z,26.00
2018-08-13T12:45:00.197Z,26.20
2018-08-13T12:47:28.649Z,26.50
2018-08-13T12:49:57.200Z,26.50
2018-08-13T12:52:25.661Z,26.40
2018-08-13T12:54:54.257Z,26.30
2018-08-13T12:57:22.739Z,26.30
2018-08-13T12:59:51.265Z,26.20
2018-08-13T13:02:19.763Z,26.00
2018-08-13T13:04:48.211Z,25.80
2018-08-13T13:07:16.726Z,25.70
2018-08-13T13:09:45.230Z,25.50
2018-08-13T13:12:13.694Z,25.50
2018-08-13T13:14:42.218Z,25.40
2018-08-13T13:17:10.732Z,25.30
2018-08-13T13:19:39.362Z,25.10
2018-08-13T13:22:07.909Z,25.00
2018-08-13T13:24:36.367Z,24.70
2018-08-13T13:27:04.890Z,24.70
2018-08-13T13:29:33.374Z,24.60
2018-08-13T13:32:01.853Z,24.50
2018-08-13T13:34:30.370Z,24.50
2018-08-13T13:36:58.905Z,24.50
2018-08-13T13:39:28.028Z,24.50
2018-08-13T13:41:57.306Z,24.60
2018-08-13T13:44:25.829Z,24.60
2018-08-13T13:46:54.326Z,24.60
2018-08-13T13:49:23.154Z,24.60
2018-08-13T13:51:51.700Z,24.60
2018-08-13T13:54:20.109Z,24.50
2018-08-13T13:56:48.681Z,24.50
2018-08-13T13:59:17.131Z,24.40
2018-08-13T14:01:45.597Z,24.40
2018-08-13T14:04:14.326Z,24.40
2018-08-13T14:06:42.842Z,24.40
2018-08-13T14:09:11.828Z,24.30
2018-08-13T14:11:40.335Z,24.30
2018-08-13T14:14:09.877Z,24.20
2018-08-13T14:16:38.471Z,24.20
2018-08-13T14:19:07.574Z,24.00
2018-08-13T14:21:36.078Z,24.00
2018-08-13T14:24:04.598Z,24.00
2018-08-13T14:26:34.316Z,23.90
2018-08-13T14:29:02.811Z,24.00
2018-08-13T14:31:31.340Z,23.80
2018-08-13T14:33:59.802Z,23.80
2018-08-13T14:36:28.317Z,23.70
2018-08-13T14:38:56.830Z,23.80
2018-08-13T14:41:25.381Z,23.80
2018-08-13T14:43:53.880Z,23.60
2018-08-13T14:46:22.360Z,23.50
2018-08-13T14:48:50.833Z,23.40
2018-08-13T14:51:19.372Z,23.40
2018-08-13T14:53:47.810Z,23.40
2018-08-13T14:56:16.332Z,23.40
2018-08-13T14:58:44.842Z,23.40
2018-08-13T15:01:13.310Z,23.40
2018-08-13T15:03:41.794Z,23.40
2018-08-13T15:06:10.282Z,23.30
2018-08-13T15:08:38.831Z,23.30
2018-08-13T15:11:07.306Z,23.30
2018-08-13T15:13:36.051Z,23.20
2018-08-13T15:16:04.569Z,23.30
2018-08-13T15:18:33.032Z,23.30
2018-08-13T15:21:01.527Z,23.20
2018-08-13T15:23:30.008Z,23.20
2018-08-13T15:25:58.535Z,23.10
2018-08-13T15:28:27.052Z,23.10
2018-08-13T15:30:55.564Z,23.00
2018-08-13T15:33:24.053Z,23.00
2018-08-13T15:35:52.516Z,22.90
2018-08-13T15:38:21.016Z,22.90
2018-08-13T15:40:49.502Z,22.90
2018-08-13T15:43:17.969Z,22.80
2018-08-13T15:45:46.497Z,22.80
2018-08-13T15:48:14.965Z,22.80
2018-08-13T15:50:43.515Z,22.80
2018-08-13T15:53:12.182Z,22.80
2018-08-13T15:55:40.721Z,22.70
2018-08-13T15:58:09.723Z,22.80
2018-08-13T16:00:38.235Z,22.80
2018-08-13T16:03:07.764Z,22.80
2018-08-13T16:05:36.576Z,22.80
2018-08-13T16:08:05.161Z,22.80
2018-08-13T16:10:34.288Z,22.80
2018-08-13T16:13:02.798Z,22.80
2018-08-13T16:15:31.387Z,22.80
2018-08-13T16:18:00.100Z,22.80
2018-08-13T16:20:28.610Z,22.70
2018-08-13T16:22:57.190Z,22.60
2018-08-13T16:25:25.734Z,22.60
2018-08-13T16:27:54.242Z,22.50
2018-08-13T16:30:26.612Z,22.50
2018-08-13T16:32:55.092Z,22.50
2018-08-13T16:35:24.241Z,22.60
2018-08-13T16:38:12.004Z,22.70
2018-08-13T16:40:41.138Z,22.80
2018-08-13T16:43:09.671Z,22.80
2018-08-13T16:45:38.182Z,22.90
2018-08-13T16:48:06.680Z,22.90
2018-08-13T16:50:35.182Z,22.90
2018-08-13T16:53:03.718Z,23.00
2018-08-13T16:55:33.109Z,23.00
2018-08-13T16:58:02.260Z,23.00
2018-08-13T17:00:31.804Z,23.10
2018-08-13T17:03:01.088Z,23.10
2018-08-13T17:05:31.310Z,23.10
2018-08-13T17:07:59.910Z,23.10
2018-08-13T17:10:29.297Z,23.00
2018-08-13T17:12:58.565Z,23.10
2018-08-13T17:15:28.726Z,23.00
2018-08-13T17:17:58.349Z,23.00
2018-08-13T17:20:32.539Z,23.10
2018-08-13T17:23:01.104Z,23.10
2018-08-13T17:25:30.109Z,23.10
2018-08-13T17:27:58.598Z,23.10
2018-08-13T17:30:27.574Z,23.00
2018-08-13T17:32:57.312Z,23.00
2018-08-13T17:35:28.835Z,23.00
2018-08-13T17:37:57.621Z,23.00
2018-08-13T17:40:26.448Z,23.00
2018-08-13T17:42:55.752Z,22.90
2018-08-13T17:45:24.589Z,22.90
2018-08-13T17:47:53.102Z,22.90
2018-08-13T17:50:22.079Z,22.80
2018-08-13T17:52:51.773Z,22.70
2018-08-13T17:55:20.348Z,22.70
2018-08-13T17:57:48.947Z,22.70
2018-08-13T18:00:19.861Z,22.70
2018-08-13T18:02:48.403Z,22.60
2018-08-13T18:05:19.290Z,22.60
2018-08-13T18:07:48.173Z,22.50
2018-08-13T18:10:21.268Z,22.50
2018-08-13T18:12:49.818Z,22.40
2018-08-13T18:15:18.381Z,22.40
2018-08-13T18:17:47.619Z,22.30
2018-08-13T18:20:16.130Z,22.30
2018-08-13T18:22:44.854Z,22.30
2018-08-13T18:25:14.201Z,22.20
2018-08-13T18:27:44.363Z,22.20
2018-08-13T18:30:22.538Z,22.10
2018-08-13T18:32:54.933Z,22.10
2018-08-13T18:35:23.549Z,22.00
2018-08-13T18:37:52.128Z,22.00
2018-08-13T18:40:24.653Z,22.00
2018-08-13T18:42:53.190Z,21.90
2018-08-13T18:45:21.855Z,21.90
2018-08-13T18:47:51.097Z,21.80
2018-08-13T18:50:20.838Z,21.70
2018-08-13T18:52:49.508Z,21.70
2018-08-13T18:55:22.590Z,21.60
2018-08-13T18:57:51.713Z,21.60
2018-08-13T19:00:25.283Z,21.50
2018-08-13T19:02:54.265Z,21.50
2018-08-13T19:05:23.360Z,21.50
2018-08-13T19:07:52.761Z,21.50
2018-08-13T19:10:21.767Z,21.50
2018-08-13T19:12:50.623Z,21.50
2018-08-13T19:15:21.319Z,21.50
2018-08-13T19:17:50.378Z,21.50
2018-08-13T19:20:19.160Z,21.50
2018-08-13T19:22:47.939Z,21.50
2018-08-13T19:25:21.795Z,21.50
2018-08-13T19:27:50.439Z,21.50
2018-08-13T19:30:19.964Z,21.50
2018-08-13T19:32:49.530Z,21.40
2018-08-13T19:35:18.053Z,21.40
2018-08-13T19:37:47.035Z,21.40
2018-08-13T19:40:17.740Z,21.40
2018-08-13T19:42:47.290Z,21.20
2018-08-13T19:45:16.809Z,21.00
2018-08-13T19:47:46.815Z,20.80
2018-08-13T19:50:15.716Z,20.60
2018-08-13T19:52:45.415Z,20.50
2018-08-13T19:55:14.651Z,20.40
2018-08-13T19:57:43.304Z,20.30
2018-08-13T20:00:17.190Z,20.10
2018-08-13T20:02:45.887Z,20.10
2018-08-13T20:05:14.645Z,19.90
2018-08-13T20:07:43.535Z,19.80
2018-08-13T20:10:13.462Z,19.80
2018-08-13T20:12:43.276Z,19.70
2018-08-13T20:15:11.978Z,19.70
2018-08-13T20:17:41.773Z,19.70
2018-08-13T20:20:14.933Z,19.50
2018-08-13T20:22:44.979Z,19.50
2018-08-13T20:25:14.855Z,19.40
2018-08-13T20:27:43.922Z,19.30
2018-08-13T20:30:15.742Z,19.20
2018-08-13T20:32:45.780Z,19.10
2018-08-13T20:35:14.349Z,19.00
2018-08-13T20:37:43.606Z,19.00
2018-08-13T20:40:14.383Z,19.00
2018-08-13T20:42:43.454Z,19.00
2018-08-13T20:45:14.391Z,18.90
2018-08-13T20:47:43.514Z,19.00
2018-08-13T20:50:16.024Z,19.00
2018-08-13T20:52:45.038Z,19.00
2018-08-13T20:55:17.245Z,19.00
2018-08-13T20:57:46.544Z,19.00
2018-08-13T21:00:16.250Z,19.00
2018-08-13T21:02:46.079Z,19.10
2018-08-13T21:05:14.969Z,19.10
2018-08-13T21:07:43.960Z,19.10
2018-08-13T21:10:14.655Z,19.20
2018-08-13T21:12:43.225Z,19.20
2018-08-13T21:15:15.970Z,19.20
2018-08-13T21:17:44.613Z,19.10
2018-08-13T21:20:18.573Z,18.60
2018-08-13T21:22:47.116Z,19.10
2018-08-13T21:25:15.814Z,19.00
2018-08-13T21:27:44.343Z,18.90
2018-08-13T21:30:13.033Z,18.90
2018-08-13T21:32:42.461Z,18.90
2018-08-13T21:35:11.268Z,18.90
2018-08-13T21:37:39.767Z,18.90
2018-08-13T21:40:09.258Z,18.90
2018-08-13T21:42:37.721Z,18.90
2018-08-13T21:45:07.288Z,18.90
2018-08-13T21:47:35.781Z,18.90
2018-08-13T21:50:06.718Z,18.90
2018-08-13T21:52:35.246Z,18.90
2018-08-13T21:55:03.761Z,18.90
2018-08-13T21:57:32.228Z,18.80
2018-08-13T22:00:00.790Z,18.70
2018-08-13T22:02:29.319Z,18.70
2018-08-13T22:04:57.852Z,18.60
2018-08-13T22:07:26.383Z,18.60
2018-08-13T22:09:54.925Z,18.50
2018-08-13T22:12:23.437Z,18.40
2018-08-13T22:14:51.957Z,18.40
2018-08-13T22:17:20.494Z,18.30
2018-08-13T22:19:48.993Z,18.30
2018-08-13T22:22:17.533Z,18.30
2018-08-13T22:24:57.963Z,18.30
2018-08-13T22:27:26.547Z,18.30
2018-08-13T22:29:55.094Z,18.30
2018-08-13T22:32:23.568Z,18.20
2018-08-13T22:34:52.080Z,18.20
2018-08-13T22:37:20.534Z,18.20
2018-08-13T22:39:49.066Z,18.20
2018-08-13T22:42:17.611Z,18.10
2018-08-13T22:44:46.097Z,18.10
2018-08-13T22:47:14.588Z,18.00
2018-08-13T22:49:43.087Z,18.00
2018-08-13T22:52:11.674Z,17.90
2018-08-13T22:54:40.111Z,17.90
2018-08-13T22:57:08.604Z,17.90
2018-08-13T22:59:37.060Z,17.80
2018-08-13T23:02:05.727Z,17.80
2018-08-13T23:04:34.213Z,17.80
2018-08-13T23:07:02.765Z,17.80
2018-08-13T23:09:31.338Z,17.80
2018-08-13T23:12:00.018Z,17.70
2018-08-13T23:14:28.560Z,17.70
2018-08-13T23:16:57.140Z,17.70
2018-08-13T23:19:25.650Z,17.60
2018-08-13T23:21:54.205Z,17.50
2018-08-13T23:24:22.667Z,17.50
2018-08-13T23:26:51.197Z,17.50
2018-08-13T23:29:19.696Z,17.40
2018-08-13T23:31:48.172Z,17.40
2018-08-13T23:34:16.679Z,17.30
2018-08-13T23:36:45.245Z,17.20
2018-08-13T23:39:14.267Z,17.20
2018-08-13T23:41:43.509Z,17.20
2018-08-13T23:44:12.135Z,17.10
2018-08-13T23:46:41.020Z,17.10
2018-08-13T23:49:09.584Z,17.10
2018-08-13T23:51:38.113Z,17.10
2018-08-13T23:54:06.633Z,17.10
2018-08-13T23:56:35.223Z,17.10
2018-08-13T23:59:03.779Z,17.10
